Time;durP1;ratioP1;P1;durP2;ratioP2;P2;SDS_P1;SDS_P2;PMS_P1;PMS_P2;Temp;Humidity;BMP_temperature;BMP_pressure;BME280_temperature;BME280_humidity;BME280_pressure;Samples;Min_cycle;Max_cycle;Signal;HPM_P1;HPM_P2
2022/06/14 00:00:59;;;;;;;12.68;3.47;;;12.10;99.90;;;;;;5039658;28;20086;-74
2022/06/14 00:03:36;;;;;;;14.95;3.15;;;12.00;99.90;;;;;;5038995;28;20059;-74
2022/06/14 00:06:06;;;;;;;10.70;2.60;;;12.00;99.90;;;;;;5035241;28;20075;-74
2022/06/14 00:08:32;;;;;;;11.70;3.25;;;12.00;99.90;;;;;;5025891;28;20488;-74
2022/06/14 00:11:00;;;;;;;13.00;3.15;;;12.00;99.90;;;;;;5041063;28;20033;-75
2022/06/14 00:13:27;;;;;;;11.82;3.13;;;11.90;99.90;;;;;;5040415;28;20278;-75
2022/06/14 00:15:52;;;;;;;12.30;2.92;;;12.00;99.90;;;;;;5018182;28;20037;-74
2022/06/14 00:18:18;;;;;;;13.20;3.55;;;11.90;99.90;;;;;;5009633;28;20041;-74
2022/06/14 00:20:46;;;;;;;14.48;3.22;;;11.90;99.90;;;;;;5023667;28;20040;-75
2022/06/14 00:23:12;;;;;;;12.68;3.28;;;11.90;99.90;;;;;;5002179;28;20067;-74
2022/06/14 00:25:40;;;;;;;8.52;2.70;;;11.80;99.90;;;;;;5025254;28;20045;-75
2022/06/14 00:28:08;;;;;;;10.80;2.65;;;11.80;99.90;;;;;;5023742;28;20087;-74
2022/06/14 00:30:35;;;;;;;13.65;2.97;;;11.80;99.90;;;;;;5057435;28;20056;-75
2022/06/14 00:33:01;;;;;;;11.18;2.83;;;11.80;99.90;;;;;;5081297;28;20036;-75
2022/06/14 00:35:27;;;;;;;10.13;2.88;;;11.80;99.90;;;;;;5073285;28;20047;-74
2022/06/14 00:37:54;;;;;;;11.60;2.80;;;11.10;99.90;;;;;;5065570;28;20070;-75
2022/06/14 00:40:24;;;;;;;12.48;3.17;;;11.90;99.90;;;;;;5084547;28;20055;-74
2022/06/14 00:42:51;;;;;;;14.30;3.30;;;11.90;99.90;;;;;;5064983;28;20116;-75
2022/06/14 00:45:16;;;;;;;10.35;2.85;;;11.90;99.90;;;;;;5065783;28;20032;-74
2022/06/14 00:47:47;;;;;;;13.07;3.35;;;11.90;99.90;;;;;;5083162;28;20513;-74
2022/06/14 00:50:27;;;;;;;11.25;3.10;;;11.90;99.90;;;;;;5068032;28;20061;-74
2022/06/14 00:53:06;;;;;;;12.80;3.10;;;11.90;99.90;;;;;;5081742;28;20109;-74
2022/06/14 00:55:46;;;;;;;11.15;2.97;;;11.90;99.90;;;;;;5082852;28;20550;-74
2022/06/14 00:58:20;;;;;;;13.18;3.33;;;11.90;99.90;;;;;;5080799;28;20028;-74
2022/06/14 01:00:54;;;;;;;11.73;2.75;;;11.90;99.90;;;;;;5083349;28;20028;-74
2022/06/14 01:03:24;;;;;;;12.57;3.30;;;11.90;99.90;;;;;;5082551;28;22018;-75
2022/06/14 01:06:06;;;;;;;10.93;3.10;;;11.90;99.90;;;;;;5081196;28;20469;-74
2022/06/14 01:09:19;;;;;;;12.23;3.50;;;11.90;99.90;;;;;;5081133;28;20552;-74
2022/06/14 01:11:50;;;;;;;14.20;3.85;;;11.90;99.90;;;;;;5066648;28;20067;-75
2022/06/14 01:14:21;;;;;;;11.63;3.50;;;11.80;99.90;;;;;;5078605;28;20039;-74
2022/06/14 01:16:47;;;;;;;12.43;3.95;;;11.80;99.90;;;;;;5088858;28;20074;-74
2022/06/14 01:19:22;;;;;;;14.20;3.65;;;11.80;99.90;;;;;;5087642;28;20506;-74
2022/06/14 01:22:02;;;;;;;12.45;3.50;;;11.80;99.90;;;;;;5087753;28;20077;-74
2022/06/14 01:24:28;;;;;;;11.55;3.42;;;11.80;99.90;;;;;;5067824;28;20547;-74
2022/06/14 01:26:54;;;;;;;12.60;3.60;;;11.80;99.90;;;;;;5071715;28;20036;-74
2022/06/14 01:29:22;;;;;;;15.00;4.55;;;11.60;99.90;;;;;;5086041;28;20101;-74
2022/06/14 01:31:49;;;;;;;12.82;4.13;;;11.80;99.90;;;;;;5048088;28;20078;-74
2022/06/14 01:34:16;;;;;;;11.60;3.45;;;11.70;99.90;;;;;;5051779;28;20112;-74
2022/06/14 01:36:42;;;;;;;11.45;3.47;;;11.70;99.90;;;;;;5082598;28;20047;-74
2022/06/14 01:39:12;;;;;;;12.75;3.80;;;11.70;99.90;;;;;;5085940;28;20087;-74
2022/06/14 01:41:59;;;;;;;13.63;4.07;;;11.70;99.90;;;;;;5085481;28;20044;-74
2022/06/14 01:44:34;;;;;;;15.90;3.80;;;11.70;99.90;;;;;;5069463;28;20035;-74
2022/06/14 01:47:00;;;;;;;13.85;3.90;;;;;;;;;;5086853;28;20032;-74
2022/06/14 01:52:16;;;;;;;12.63;3.90;;;11.70;99.90;;;;;;5083978;28;20040;-74
2022/06/14 01:55:11;;;;;;;13.35;3.50;;;11.70;99.90;;;;;;5084516;28;20039;-74
2022/06/14 01:58:24;;;;;;;13.27;3.80;;;11.70;99.90;;;;;;5043129;28;20079;-74
2022/06/14 02:01:10;;;;;;;12.18;3.33;;;11.70;99.90;;;;;;5066296;28;20075;-74
2022/06/14 02:07:11;;;;;;;11.52;3.60;;;11.70;99.90;;;;;;5085281;28;20678;-74
2022/06/14 02:09:40;;;;;;;12.10;3.33;;;11.70;99.90;;;;;;5078669;28;20036;-74
2022/06/14 02:12:12;;;;;;;10.55;3.25;;;11.70;99.90;;;;;;5083164;28;20051;-74
2022/06/14 02:15:05;;;;;;;16.00;3.50;;;11.70;99.90;;;;;;5068259;28;20117;-75
2022/06/14 02:17:36;;;;;;;13.20;3.95;;;11.70;99.90;;;;;;5084471;28;20105;-74
2022/06/14 02:20:10;;;;;;;13.48;3.58;;;11.70;99.90;;;;;;5066699;28;20324;-74
2022/06/14 02:22:40;;;;;;;11.13;3.22;;;11.60;99.90;;;;;;5068977;28;20101;-74
2022/06/14 02:25:12;;;;;;;12.00;3.20;;;11.60;99.90;;;;;;5066187;28;20036;-74
2022/06/14 02:27:53;;;;;;;16.77;4.20;;;11.60;99.90;;;;;;5086025;28;20396;-74
2022/06/14 02:30:24;;;;;;;13.25;3.45;;;11.50;99.90;;;;;;5067238;28;20047;-74
2022/06/14 02:33:01;;;;;;;12.73;3.90;;;11.50;99.90;;;;;;5065156;28;20108;-74
2022/06/14 02:35:35;;;;;;;12.95;3.53;;;11.50;99.90;;;;;;5081927;28;20039;-74
2022/06/14 02:38:25;;;;;;;13.30;3.60;;;11.40;99.90;;;;;;5084219;28;20091;-74
2022/06/14 02:41:22;;;;;;;14.10;3.88;;;11.40;99.90;;;;;;5085634;28;20052;-74
2022/06/14 02:44:13;;;;;;;15.50;3.95;;;11.40;99.90;;;;;;5080118;28;20063;-74
2022/06/14 02:47:10;;;;;;;14.23;3.25;;;11.40;99.90;;;;;;5084036;28;20032;-74
2022/06/14 02:49:45;;;;;;;12.60;3.47;;;11.30;99.90;;;;;;5081165;28;20128;-74
2022/06/14 02:52:15;;;;;;;13.95;3.90;;;11.40;99.90;;;;;;5082725;28;20040;-74
2022/06/14 02:55:06;;;;;;;13.00;3.00;;;11.40;99.90;;;;;;5065541;28;20052;-74
2022/06/14 02:57:43;;;;;;;11.23;3.38;;;11.40;99.90;;;;;;5068112;28;20031;-74
2022/06/14 03:00:13;;;;;;;14.25;3.50;;;11.90;99.90;;;;;;5083161;28;20114;-74
2022/06/14 03:02:53;;;;;;;12.15;3.65;;;11.30;99.90;;;;;;5083792;28;20043;-75
2022/06/14 03:05:22;;;;;;;11.43;3.25;;;11.30;99.90;;;;;;5084412;28;20131;-74
2022/06/14 03:08:01;;;;;;;12.60;3.80;;;11.30;99.90;;;;;;5064702;28;20047;-74
2022/06/14 03:10:38;;;;;;;13.45;3.30;;;11.30;99.90;;;;;;5084942;28;20036;-74
2022/06/14 03:13:40;;;;;;;14.65;4.20;;;11.30;99.90;;;;;;5068059;28;20406;-74
2022/06/14 03:16:54;;;;;;;11.38;3.50;;;11.30;99.90;;;;;;5055011;28;20049;-74
2022/06/14 03:19:22;;;;;;;12.82;3.42;;;11.30;99.90;;;;;;5061291;28;20047;-74
2022/06/14 03:22:03;;;;;;;13.23;3.42;;;11.20;99.90;;;;;;5065920;28;20343;-74
2022/06/14 03:24:54;;;;;;;11.85;3.38;;;11.20;99.90;;;;;;5065003;28;20470;-74
2022/06/14 03:27:22;;;;;;;13.45;3.35;;;11.20;99.90;;;;;;5083913;28;20096;-74
2022/06/14 03:30:17;;;;;;;11.15;3.72;;;11.20;99.90;;;;;;5066873;28;20043;-74
2022/06/14 03:33:06;;;;;;;10.57;3.60;;;11.20;99.90;;;;;;5081951;28;20036;-74
2022/06/14 03:35:44;;;;;;;11.02;3.65;;;11.20;99.90;;;;;;5048108;28;20044;-74
2022/06/14 03:38:19;;;;;;;13.32;4.03;;;11.20;99.90;;;;;;5082397;28;20097;-74
2022/06/14 03:40:46;;;;;;;12.55;3.92;;;11.20;99.90;;;;;;5067435;28;20042;-74
2022/06/14 03:43:14;;;;;;;13.07;3.90;;;11.20;99.90;;;;;;5084427;28;20034;-74
2022/06/14 03:45:51;;;;;;;12.93;3.90;;;11.20;99.90;;;;;;5084136;28;20522;-74
2022/06/14 03:48:17;;;;;;;12.60;4.10;;;11.30;99.90;;;;;;5079554;28;20028;-74
2022/06/14 03:51:00;;;;;;;13.23;3.63;;;11.20;99.90;;;;;;5083754;28;20047;-73
2022/06/14 03:53:37;;;;;;;12.93;4.20;;;11.20;99.90;;;;;;5065813;28;20039;-73
2022/06/14 03:56:13;;;;;;;13.65;3.80;;;11.30;99.90;;;;;;5080363;28;20040;-74
2022/06/14 03:58:46;;;;;;;15.80;4.47;;;11.20;99.90;;;;;;5083538;28;20490;-74
2022/06/14 04:01:25;;;;;;;20.05;5.28;;;11.30;99.90;;;;;;5081333;28;20069;-74
2022/06/14 04:04:03;;;;;;;9.68;3.55;;;11.30;99.90;;;;;;5057284;28;20044;-74
2022/06/14 04:06:55;;;;;;;13.70;3.67;;;11.30;99.90;;;;;;5072059;28;20200;-74
2022/06/14 04:09:39;;;;;;;15.25;4.03;;;11.30;99.90;;;;;;5059100;28;20403;-74
2022/06/14 04:12:20;;;;;;;11.77;4.28;;;11.30;99.90;;;;;;5065182;28;20032;-74
2022/06/14 04:15:24;;;;;;;12.73;3.58;;;11.30;99.90;;;;;;5079970;28;20040;-74
2022/06/14 04:18:02;;;;;;;12.93;3.60;;;11.40;99.90;;;;;;5065719;28;20045;-74
2022/06/14 04:20:43;;;;;;;17.65;4.53;;;11.40;99.90;;;;;;5067369;28;20032;-74
2022/06/14 04:23:27;;;;;;;13.80;4.35;;;11.50;99.90;;;;;;5080807;28;20044;-74
2022/06/14 04:26:00;;;;;;;10.10;3.33;;;11.50;99.90;;;;;;5064446;28;20055;-74
2022/06/14 04:28:44;;;;;;;13.18;4.40;;;11.50;99.90;;;;;;5080514;28;20029;-74
2022/06/14 04:31:28;;;;;;;;;;;11.60;99.90;;;;;;5067694;28;20047;-74
2022/06/14 04:34:02;;;;;;;11.27;3.95;;;11.70;99.90;;;;;;5081713;28;19916;-74
2022/06/14 04:36:54;;;;;;;13.23;4.28;;;11.70;99.90;;;;;;5083014;28;20518;-74
2022/06/14 04:39:50;;;;;;;13.07;4.35;;;11.80;99.90;;;;;;5060396;28;20072;-74
2022/06/14 04:42:23;;;;;;;11.80;3.67;;;12.00;99.90;;;;;;5080461;28;20138;-74
2022/06/14 04:44:52;;;;;;;;;;;12.00;99.90;;;;;;5059533;28;20029;-75
2022/06/14 04:47:23;;;;;;;12.38;3.67;;;12.00;99.90;;;;;;5085570;28;19924;-74
2022/06/14 04:49:56;;;;;;;12.05;3.80;;;12.10;99.90;;;;;;5085871;28;20067;-74
2022/06/14 04:52:32;;;;;;;14.25;4.05;;;12.10;99.90;;;;;;5064537;28;20072;-74
2022/06/14 04:55:08;;;;;;;14.13;3.95;;;12.20;99.90;;;;;;5079227;28;20040;-74
2022/06/14 04:58:05;;;;;;;12.77;4.03;;;12.20;99.90;;;;;;5085097;28;20042;-74
2022/06/14 05:00:37;;;;;;;12.75;3.80;;;12.30;99.90;;;;;;5077050;28;20048;-74
2022/06/14 05:03:10;;;;;;;12.30;3.53;;;12.30;99.90;;;;;;5067622;28;20105;-74
2022/06/14 05:05:44;;;;;;;;;;;12.30;99.90;;;;;;5083263;28;20048;-74
2022/06/14 05:08:23;;;;;;;10.65;3.42;;;12.40;99.90;;;;;;5086908;28;19923;-74
2022/06/14 05:11:18;;;;;;;11.18;3.35;;;12.50;99.90;;;;;;5089504;28;20530;-74
2022/06/14 05:14:08;;;;;;;16.65;3.63;;;12.50;99.90;;;;;;5072748;28;20401;-74
2022/06/14 05:16:48;;;;;;;9.75;3.08;;;12.60;99.90;;;;;;5071894;28;20040;-74
2022/06/14 05:19:24;;;;;;;12.65;3.53;;;12.70;99.90;;;;;;5068404;28;20410;-74
2022/06/14 05:22:21;;;;;;;12.27;3.90;;;12.70;99.90;;;;;;5085632;28;20557;-74
2022/06/14 05:24:47;;;;;;;10.38;3.40;;;12.80;99.90;;;;;;5083357;28;20064;-74
2022/06/14 05:27:12;;;;;;;13.88;4.10;;;12.90;99.90;;;;;;5087542;28;20044;-74
2022/06/14 05:29:47;;;;;;;13.90;3.92;;;13.00;99.90;;;;;;5088605;28;20060;-74
2022/06/14 05:32:30;;;;;;;13.10;3.75;;;13.00;99.90;;;;;;5066079;28;20039;-75
2022/06/14 05:35:23;;;;;;;12.52;3.88;;;13.10;99.90;;;;;;5085055;28;20045;-74
2022/06/14 05:37:58;;;;;;;;;;;13.10;99.90;;;;;;5088355;28;20071;-74
2022/06/14 05:40:28;;;;;;;13.05;4.07;;;13.10;99.90;;;;;;5087049;28;20562;-74
2022/06/14 05:43:12;;;;;;;10.80;3.55;;;13.20;99.90;;;;;;5085494;28;20051;-74
2022/06/14 05:45:42;;;;;;;13.77;3.83;;;13.30;99.90;;;;;;5069133;28;20044;-74
2022/06/14 05:48:13;;;;;;;12.32;3.28;;;13.40;99.90;;;;;;5086580;28;20032;-75
2022/06/14 05:50:44;;;;;;;15.15;3.55;;;13.50;99.90;;;;;;5068968;28;20063;-75
2022/06/14 05:53:15;;;;;;;12.70;3.72;;;13.60;99.90;;;;;;5086566;28;20036;-75
2022/06/14 05:55:49;;;;;;;10.68;3.25;;;13.60;99.90;;;;;;5068217;28;20119;-75
2022/06/14 05:58:45;;;;;;;15.40;3.60;;;13.70;99.90;;;;;;5084086;28;20490;-74
2022/06/14 06:01:35;;;;;;;11.40;3.60;;;13.80;99.90;;;;;;5086447;28;20043;-75
2022/06/14 06:04:18;;;;;;;11.05;3.20;;;13.80;99.90;;;;;;5082589;28;20070;-75
2022/06/14 06:06:49;;;;;;;9.43;2.90;;;13.80;99.90;;;;;;5058145;28;20044;-74
2022/06/14 06:09:20;;;;;;;12.68;3.25;;;13.80;99.90;;;;;;5080170;28;20055;-74
2022/06/14 06:11:55;;;;;;;13.73;3.38;;;13.80;99.90;;;;;;5080869;28;20029;-74
2022/06/14 06:14:35;;;;;;;11.65;2.92;;;13.90;99.90;;;;;;5084481;28;20036;-75
2022/06/14 06:17:12;;;;;;;12.13;3.50;;;13.90;99.90;;;;;;5074425;28;20098;-75
2022/06/14 06:19:58;;;;;;;11.25;2.90;;;14.00;99.90;;;;;;5084519;28;20059;-75
2022/06/14 06:22:43;;;;;;;10.27;3.05;;;14.20;99.90;;;;;;5066251;28;20044;-75
2022/06/14 06:25:29;;;;;;;15.10;3.20;;;14.30;99.90;;;;;;5063672;28;20384;-74
2022/06/14 06:28:07;;;;;;;10.75;3.35;;;14.50;99.90;;;;;;5067719;28;20123;-74
2022/06/14 06:31:14;;;;;;;12.43;3.35;;;14.60;99.90;;;;;;5085977;28;20104;-74
2022/06/14 06:33:46;;;;;;;12.90;3.35;;;14.70;99.90;;;;;;5068320;28;20067;-74
2022/06/14 06:36:45;;;;;;;16.00;3.60;;;14.90;99.90;;;;;;5077709;28;20036;-74
2022/06/14 06:39:39;;;;;;;10.35;2.47;;;15.00;99.90;;;;;;5064401;28;20044;-74
2022/06/14 06:42:30;;;;;;;11.73;3.38;;;15.10;99.90;;;;;;5071897;28;20048;-74
2022/06/14 06:45:24;;;;;;;11.07;2.83;;;15.20;99.90;;;;;;5067055;28;20052;-74
2022/06/14 06:48:14;;;;;;;10.05;2.70;;;15.30;99.90;;;;;;5082523;28;20047;-74
2022/06/14 06:50:51;;;;;;;11.02;2.90;;;15.50;99.90;;;;;;5085686;28;20036;-74
2022/06/14 06:53:22;;;;;;;9.35;2.67;;;15.70;99.90;;;;;;5083902;28;20040;-74
2022/06/14 06:56:30;;;;;;;11.23;2.58;;;15.70;99.90;;;;;;5084192;28;20126;-74
2022/06/14 06:59:01;;;;;;;10.32;2.30;;;15.70;99.90;;;;;;5085480;28;20040;-75
2022/06/14 07:01:37;;;;;;;8.25;1.92;;;15.60;99.90;;;;;;5080707;28;20044;-75
2022/06/14 07:05:02;;;;;;;9.73;2.78;;;15.70;99.90;;;;;;5066891;28;20052;-75
2022/06/14 07:07:24;;;;;;;8.40;1.98;;;15.70;99.90;;;;;;5082634;28;20568;-75
2022/06/14 07:10:18;;;;;;;9.70;2.28;;;15.70;99.90;;;;;;5079243;28;20074;-75
2022/06/14 07:12:50;;;;;;;7.88;2.38;;;15.60;99.90;;;;;;5062158;28;20068;-75
2022/06/14 07:15:18;;;;;;;9.45;2.15;;;15.70;99.90;;;;;;5066346;28;20501;-74
2022/06/14 07:18:13;;;;;;;9.70;2.10;;;15.90;99.90;;;;;;5083773;28;20040;-74
2022/06/14 07:21:23;;;;;;;8.88;2.10;;;16.10;99.90;;;;;;5055738;28;20206;-75
2022/06/14 07:24:29;;;;;;;7.53;1.88;;;16.40;99.90;;;;;;5019676;28;20397;-74
2022/06/14 07:27:11;;;;;;;8.20;2.30;;;16.40;99.90;;;;;;5003530;28;20069;-74
2022/06/14 07:29:43;;;;;;;7.07;2.20;;;16.60;99.90;;;;;;5070459;28;21362;-75
2022/06/14 07:32:18;;;;;;;8.82;2.45;;;16.60;99.90;;;;;;5081352;28;20368;-75
2022/06/14 07:34:45;;;;;;;7.18;1.85;;;16.60;99.90;;;;;;5083072;28;20173;-75
2022/06/14 07:37:17;;;;;;;7.57;2.00;;;16.60;99.90;;;;;;5084010;28;20048;-75
2022/06/14 07:40:11;;;;;;;5.72;1.80;;;16.50;99.90;;;;;;5083997;28;20036;-74
2022/06/14 07:42:41;;;;;;;7.97;2.33;;;16.50;99.90;;;;;;5062555;28;20036;-74
2022/06/14 07:45:20;;;;;;;8.27;1.92;;;16.60;99.90;;;;;;5066693;28;20055;-74
2022/06/14 07:48:17;;;;;;;7.75;1.90;;;16.60;99.90;;;;;;5082260;28;20085;-74
2022/06/14 07:50:50;;;;;;;7.47;1.90;;;16.70;99.90;;;;;;5080324;28;20115;-75
2022/06/14 07:53:38;;;;;;;9.55;1.90;;;16.70;99.90;;;;;;5081322;28;20111;-75
2022/06/14 07:56:12;;;;;;;8.75;1.80;;;16.80;99.90;;;;;;5064437;28;20063;-75
2022/06/14 07:58:44;;;;;;;9.07;2.20;;;16.90;99.90;;;;;;5062665;28;20028;-75
2022/06/14 08:01:19;;;;;;;8.52;2.22;;;16.90;99.90;;;;;;5077629;28;20032;-75
2022/06/14 08:04:05;;;;;;;9.80;2.58;;;17.00;99.90;;;;;;5059356;28;20486;-75
2022/06/14 08:06:42;;;;;;;10.52;2.13;;;17.10;99.90;;;;;;5064027;28;20433;-74
2022/06/14 08:09:24;;;;;;;8.82;2.38;;;17.20;99.90;;;;;;5084169;28;20040;-75
2022/06/14 08:11:54;;;;;;;7.95;2.10;;;17.30;99.90;;;;;;5078537;28;20033;-75
2022/06/14 08:14:35;;;;;;;7.65;1.95;;;17.50;99.90;;;;;;5084577;28;20040;-75
2022/06/14 08:17:02;;;;;;;5.85;1.88;;;17.60;99.90;;;;;;5081393;28;20078;-75
2022/06/14 08:19:34;;;;;;;6.03;1.75;;;17.80;99.90;;;;;;5067753;28;20044;-75
2022/06/14 08:22:07;;;;;;;7.65;1.85;;;17.70;99.90;;;;;;5072772;28;20055;-75
2022/06/14 08:24:41;;;;;;;7.88;2.13;;;17.60;99.90;;;;;;5070489;28;20047;-75
2022/06/14 08:27:23;;;;;;;7.90;2.00;;;17.80;99.90;;;;;;5068914;28;20068;-75
2022/06/14 08:29:59;;;;;;;6.45;1.80;;;18.00;99.90;;;;;;5082104;28;20504;-75
2022/06/14 08:32:48;;;;;;;9.23;1.92;;;18.10;99.90;;;;;;5086640;28;20046;-75
2022/06/14 08:35:30;;;;;;;7.85;1.80;;;17.90;99.90;;;;;;5080216;28;20519;-75
2022/06/14 08:38:16;;;;;;;6.22;1.90;;;17.60;99.90;;;;;;5085739;28;20075;-75
2022/06/14 08:41:01;;;;;;;7.72;1.90;;;17.40;99.90;;;;;;5086309;28;20032;-75
2022/06/14 08:43:39;;;;;;;5.68;1.83;;;17.70;99.90;;;;;;5083846;28;20043;-75
2022/06/14 08:46:19;;;;;;;8.32;2.20;;;18.00;99.90;;;;;;5072850;28;20080;-75
2022/06/14 08:49:25;;;;;;;6.60;1.70;;;18.20;99.90;;;;;;5085993;28;20182;-75
2022/06/14 08:52:22;;;;;;;7.45;2.00;;;18.20;99.90;;;;;;5066130;28;20032;-75
2022/06/14 08:55:10;;;;;;;9.35;1.80;;;18.00;99.90;;;;;;5068335;28;20044;-75
2022/06/14 08:58:11;;;;;;;5.90;1.60;;;17.80;99.90;;;;;;5085890;28;20122;-76
2022/06/14 09:01:10;;;;;;;6.40;1.70;;;17.70;99.90;;;;;;5068954;28;20052;-75
2022/06/14 09:04:06;;;;;;;7.13;1.85;;;18.00;99.90;;;;;;5059318;28;20044;-75
2022/06/14 09:06:41;;;;;;;6.75;1.60;;;18.50;99.90;;;;;;5086541;28;20466;-75
2022/06/14 09:09:22;;;;;;;9.10;2.00;;;18.90;99.90;;;;;;5068179;28;20060;-75
2022/06/14 09:12:36;;;;;;;6.35;1.85;;;19.00;99.90;;;;;;5082095;28;20044;-75
2022/06/14 09:15:38;;;;;;;5.55;1.77;;;19.00;99.90;;;;;;5059280;28;20050;-75
2022/06/14 09:18:20;;;;;;;6.22;1.90;;;18.80;99.90;;;;;;5063414;28;20101;-75
2022/06/14 09:21:08;;;;;;;9.23;1.83;;;18.70;99.90;;;;;;5070821;28;20114;-75
2022/06/14 09:24:20;;;;;;;6.70;1.65;;;18.50;99.90;;;;;;5069124;28;20052;-75
2022/06/14 09:27:24;;;;;;;6.45;1.90;;;18.40;99.90;;;;;;5069004;28;20037;-75
2022/06/14 09:30:29;;;;;;;6.43;1.80;;;18.20;99.90;;;;;;5081873;28;20040;-75
2022/06/14 09:33:17;;;;;;;5.63;1.70;;;18.20;99.90;;;;;;5061667;28;20584;-75
2022/06/14 09:35:56;;;;;;;7.20;1.63;;;18.20;99.90;;;;;;5084676;28;20041;-74
2022/06/14 09:38:40;;;;;;;4.47;1.70;;;18.60;99.90;;;;;;5065435;28;20052;-74
2022/06/14 09:41:18;;;;;;;7.90;1.73;;;19.00;99.90;;;;;;5054457;28;20040;-74
2022/06/14 09:44:17;;;;;;;6.40;1.55;;;19.50;99.90;;;;;;5068120;28;20093;-75
2022/06/14 09:47:08;;;;;;;6.47;1.77;;;19.70;99.90;;;;;;5084569;28;20027;-74
2022/06/14 09:49:48;;;;;;;6.13;1.75;;;19.70;99.90;;;;;;5065366;28;20032;-75
2022/06/14 09:52:33;;;;;;;6.07;1.77;;;19.60;99.90;;;;;;5086977;28;20032;-75
2022/06/14 09:55:14;;;;;;;5.90;1.65;;;19.30;99.90;;;;;;5084911;28;20067;-74
2022/06/14 09:58:10;;;;;;;6.50;1.65;;;19.10;99.90;;;;;;5071203;28;20043;-74
2022/06/14 10:00:55;;;;;;;7.97;1.77;;;19.00;99.90;;;;;;5068110;28;20062;-74
2022/06/14 10:03:33;;;;;;;7.35;1.55;;;18.90;99.90;;;;;;5066617;28;20392;-74
2022/06/14 10:06:37;;;;;;;6.55;1.63;;;19.20;99.90;;;;;;5083319;28;20506;-75
2022/06/14 10:09:18;;;;;;;7.25;2.15;;;19.20;99.90;;;;;;5085912;28;20043;-74
2022/06/14 10:12:19;;;;;;;5.70;1.50;;;19.20;99.90;;;;;;5068402;28;20036;-75
2022/06/14 10:15:27;;;;;;;5.38;1.63;;;19.20;99.90;;;;;;5069814;28;20055;-74
2022/06/14 10:18:14;;;;;;;5.75;1.52;;;19.00;99.90;;;;;;5084397;28;20047;-74
2022/06/14 10:20:44;;;;;;;6.40;1.58;;;18.90;99.90;;;;;;5080911;28;20131;-74
2022/06/14 10:23:16;;;;;;;5.30;1.73;;;18.90;99.90;;;;;;5082782;28;20044;-74
2022/06/14 10:29:23;;;;;;;6.82;2.17;;;18.80;99.90;;;;;;5085464;28;20453;-74
2022/06/14 10:32:31;;;;;;;6.05;1.60;;;18.80;99.90;;;;;;5066236;28;20486;-75
2022/06/14 10:35:05;;;;;;;5.15;1.70;;;18.70;99.90;;;;;;5086486;28;20040;-74
2022/06/14 10:38:08;;;;;;;5.00;1.52;;;18.60;99.90;;;;;;5082933;28;20260;-74
2022/06/14 10:40:40;;;;;;;8.18;1.70;;;18.60;99.90;;;;;;5084158;28;20036;-74
2022/06/14 10:43:18;;;;;;;5.53;1.90;;;18.50;99.90;;;;;;5086048;28;20044;-74
2022/06/14 10:45:57;;;;;;;5.03;1.50;;;18.50;99.90;;;;;;5082431;28;20032;-74
2022/06/14 10:48:41;;;;;;;6.57;1.73;;;18.40;99.90;;;;;;5068644;28;20070;-74
2022/06/14 10:51:32;;;;;;;5.43;1.63;;;18.30;99.90;;;;;;5083618;28;20040;-74
2022/06/14 10:54:39;;;;;;;8.10;1.52;;;18.20;99.90;;;;;;5083297;28;20567;-75
2022/06/14 10:57:24;;;;;;;5.15;1.90;;;18.20;99.90;;;;;;5073686;28;20108;-74
2022/06/14 11:00:02;;;;;;;7.13;2.10;;;18.20;99.90;;;;;;5068058;28;20135;-75
2022/06/14 11:02:52;;;;;;;6.13;1.73;;;18.20;99.90;;;;;;5076834;28;20443;-74
2022/06/14 11:05:59;;;;;;;6.93;1.65;;;18.30;99.90;;;;;;5078967;28;20450;-75
2022/06/14 11:08:37;;;;;;;4.78;1.63;;;18.10;99.90;;;;;;5079381;28;20131;-74
2022/06/14 11:11:26;;;;;;;8.05;1.70;;;18.10;99.90;;;;;;5085544;28;20059;-74
2022/06/14 11:14:25;;;;;;;3.75;1.40;;;18.20;99.90;;;;;;5059697;28;20044;-75
2022/06/14 11:17:09;;;;;;;6.03;1.50;;;18.20;99.90;;;;;;5082019;28;20035;-74
2022/06/14 11:19:39;;;;;;;5.43;1.80;;;18.20;99.90;;;;;;5082107;28;20059;-74
2022/06/14 11:22:43;;;;;;;5.30;1.55;;;18.20;99.90;;;;;;5084376;28;20091;-75
2022/06/14 11:25:34;;;;;;;6.57;1.80;;;18.30;99.90;;;;;;5067232;28;20044;-75
2022/06/14 11:28:41;;;;;;;6.32;1.75;;;18.30;99.90;;;;;;5064112;28;20054;-74
2022/06/14 11:31:18;;;;;;;5.72;1.60;;;18.30;99.90;;;;;;5082878;28;20040;-74
2022/06/14 11:34:03;;;;;;;7.43;1.90;;;18.20;99.90;;;;;;5066493;28;20032;-75
2022/06/14 11:37:13;;;;;;;8.05;2.00;;;18.10;99.90;;;;;;5083144;28;20054;-74
2022/06/14 11:39:52;;;;;;;7.22;2.10;;;18.00;99.90;;;;;;5083287;28;20036;-74
2022/06/14 11:42:24;;;;;;;5.75;1.85;;;17.80;99.90;;;;;;5083326;28;20064;-74
2022/06/14 11:45:08;;;;;;;5.07;1.85;;;17.80;99.90;;;;;;5059972;28;20109;-75
2022/06/14 11:47:45;;;;;;;6.18;1.90;;;17.80;99.90;;;;;;5078895;28;20449;-74
2022/06/14 11:50:53;;;;;;;5.32;1.98;;;17.70;99.90;;;;;;5080590;28;20110;-74
2022/06/14 11:53:27;;;;;;;6.30;1.83;;;17.70;99.90;;;;;;5083328;28;20032;-75
2022/06/14 11:56:07;;;;;;;7.38;1.90;;;17.70;99.90;;;;;;5081043;28;20067;-74
2022/06/14 11:58:55;;;;;;;6.13;1.67;;;17.80;99.90;;;;;;5083774;28;20068;-75
2022/06/14 12:01:50;;;;;;;7.80;1.98;;;17.80;99.90;;;;;;5064888;28;20120;-75
2022/06/14 12:04:32;;;;;;;11.45;2.53;;;17.80;99.90;;;;;;5061746;28;20498;-75
2022/06/14 12:07:24;;;;;;;8.93;2.10;;;17.80;99.90;;;;;;5083526;28;20085;-74
2022/06/14 12:10:06;;;;;;;9.98;2.00;;;17.90;99.90;;;;;;5064233;28;20109;-75
2022/06/14 12:12:38;;;;;;;7.57;1.90;;;17.90;99.90;;;;;;5064191;28;20083;-75
2022/06/14 12:15:21;;;;;;;5.90;1.83;;;18.00;99.90;;;;;;5082773;28;20489;-75
2022/06/14 12:17:54;;;;;;;6.75;2.20;;;18.10;99.90;;;;;;5080488;28;20040;-75
2022/06/14 12:20:25;;;;;;;6.68;1.88;;;18.30;99.90;;;;;;5066945;28;20051;-75
2022/06/14 12:22:59;;;;;;;7.40;2.03;;;18.50;99.90;;;;;;5063997;28;20128;-75
2022/06/14 12:28:42;;;;;;;5.75;1.90;;;18.90;99.90;;;;;;5082568;28;20494;-75
2022/06/14 12:31:38;;;;;;;8.45;2.00;;;19.00;99.90;;;;;;5066035;28;20520;-75
2022/06/14 12:34:13;;;;;;;6.25;1.90;;;19.30;99.90;;;;;;5073494;28;20048;-75
2022/06/14 12:36:44;;;;;;;5.85;1.85;;;19.60;99.90;;;;;;5079334;28;20105;-75
2022/06/14 12:39:16;;;;;;;7.53;2.00;;;19.80;99.90;;;;;;5066742;28;20044;-75
2022/06/14 12:41:54;;;;;;;7.85;1.98;;;20.10;99.90;;;;;;5064609;28;20045;-75
2022/06/14 12:44:36;;;;;;;6.18;1.90;;;20.30;99.90;;;;;;5077714;28;20105;-75
2022/06/14 12:47:03;;;;;;;;;;;20.70;99.90;;;;;;5084294;28;20032;-75
2022/06/14 12:49:37;;;;;;;6.88;1.98;;;21.10;99.90;;;;;;5083955;28;20452;-75
2022/06/14 12:52:13;;;;;;;6.60;1.83;;;21.20;99.90;;;;;;5078945;28;20466;-75
2022/06/14 12:54:49;;;;;;;5.90;1.80;;;21.20;99.90;;;;;;5080497;28;20047;-75
2022/06/14 12:57:16;;;;;;;8.68;1.73;;;21.10;99.90;;;;;;5081802;28;20111;-74
2022/06/14 13:00:18;;;;;;;6.95;1.88;;;21.00;99.90;;;;;;5064110;28;20165;-75
2022/06/14 13:02:58;;;;;;;5.15;1.85;;;21.00;99.90;;;;;;5066352;28;20105;-75
2022/06/14 13:05:28;;;;;;;6.38;1.90;;;20.80;99.90;;;;;;5076641;28;20075;-75
2022/06/14 13:07:54;;;;;;;6.07;1.70;;;20.70;99.90;;;;;;5066539;28;20567;-75
2022/06/14 13:10:36;;;;;;;9.90;1.90;;;20.80;99.90;;;;;;5085964;28;20032;-75
2022/06/14 13:13:27;;;;;;;7.53;2.10;;;20.80;99.90;;;;;;5082409;28;20085;-75
2022/06/14 13:16:22;;;;;;;6.55;2.15;;;20.80;99.90;;;;;;5084162;28;20052;-75
2022/06/14 13:19:09;;;;;;;7.10;1.95;;;20.70;99.90;;;;;;5084297;28;20044;-75
2022/06/14 13:22:06;;;;;;;4.78;1.70;;;20.60;99.90;;;;;;5082988;28;20135;-75
2022/06/14 13:24:58;;;;;;;6.50;1.90;;;20.60;99.90;;;;;;5082922;28;20040;-75
2022/06/14 13:27:51;;;;;;;8.52;2.03;;;20.70;99.90;;;;;;5085175;28;20039;-74
2022/06/14 13:30:31;;;;;;;6.50;1.95;;;20.90;99.90;;;;;;5083301;28;20074;-75
2022/06/14 13:33:11;;;;;;;4.97;1.60;;;21.00;99.90;;;;;;5077346;28;20047;-75
2022/06/14 13:36:21;;;;;;;7.05;1.80;;;21.20;99.90;;;;;;5085943;28;20082;-75
2022/06/14 13:38:50;;;;;;;4.65;1.80;;;21.30;99.90;;;;;;5061579;28;20064;-75
2022/06/14 13:41:30;;;;;;;7.25;2.05;;;21.20;99.90;;;;;;5066745;28;20900;-74
2022/06/14 13:44:03;;;;;;;7.22;1.80;;;21.10;99.90;;;;;;5068035;28;20094;-75
2022/06/14 13:46:40;;;;;;;5.72;1.80;;;21.10;99.90;;;;;;5087270;28;20028;-75
2022/06/14 13:49:15;;;;;;;8.40;2.00;;;21.10;99.90;;;;;;5067042;28;20394;-75
2022/06/14 13:51:59;;;;;;;7.38;2.03;;;21.10;99.90;;;;;;5084126;28;20094;-74
2022/06/14 13:54:37;;;;;;;7.80;1.92;;;21.00;99.90;;;;;;5070299;28;20059;-75
2022/06/14 13:57:14;;;;;;;5.20;1.80;;;21.10;99.90;;;;;;5086000;28;20119;-74
2022/06/14 13:59:44;;;;;;;6.53;2.00;;;21.20;99.90;;;;;;5075935;28;20071;-74
2022/06/14 14:02:16;;;;;;;8.07;1.80;;;21.10;99.90;;;;;;5083331;28;20050;-75
2022/06/14 14:04:48;;;;;;;5.97;1.98;;;21.10;99.90;;;;;;5065624;28;20052;-74
2022/06/14 14:07:21;;;;;;;8.18;2.13;;;21.30;99.90;;;;;;5086698;28;20101;-74